Home > Products > Valid Products > TAF

000
FTUS44 KTSA 032300
TAFFYV
TAF
KFYV 032338Z 0400/0424 20007KT P6SM OVC007
      TEMPO 0400/0404 5SM -RA BR OVC004
     FM040400 04002KT 3SM -RA BR OVC006
     FM041500 02010G16KT 3SM PL OVC007
     FM042100 01008KT 1SM -SN BKN007 OVC015=



000
FTUS44 KTSA 032300
TAFMLC
TAF
KMLC 032338Z 0400/0424 19004KT P6SM OVC007
      TEMPO 0400/0404 OVC004
     FM040400 01008KT 4SM -RA BR OVC005
     FM041200 01014G20KT 3SM -RA BR OVC007
     FM041800 01015G22KT 3SM PL BR OVC010
     FM042200 01016G23KT 4SM -SNPL OVC020=



000
FTUS44 KTSA 032300
TAFXNA
TAF
KXNA 032338Z 0400/0424 25007KT P6SM OVC007
      TEMPO 0400/0404 5SM -RA BR OVC004
     FM040400 01005KT 3SM -RA BR OVC006
     FM041400 02013G20KT 3SM PL OVC007
     FM042000 01008KT 1SM -SN BKN007 OVC015=



000
FTUS44 KTSA 032300
TAFFSM
TAF
KFSM 032338Z 0400/0424 04007KT 1 1/2SM -RA BR BKN003 OVC012
      TEMPO 0400/0404 3SM BR SCT003 OVC012
     FM040400 05004KT 1 1/2SM -RA BR BKN003 OVC010
     FM041900 36011KT 2SM PL OVC010=



000
FTUS44 KTSA 032300
TAFTUL
TAF
KTUL 032338Z 0400/0424 31006KT 6SM -RA SCT025 OVC090
      TEMPO 0400/0404 BKN025
     FM040400 36008KT 4SM -RA BR OVC025
     FM041100 36018G25KT 4SM PL OVC015
     FM041900 01017G24KT 2SM -SN OVC025
     FM042200 01016G22KT 2SM -SN OVC035=



000
FTUS44 KTSA 032300
TAFRVS
TAF
KRVS 032338Z 0400/0424 31005KT 6SM -RA SCT025 OVC090
      TEMPO 0400/0404 BKN025
     FM040400 36007KT 4SM -RA BR OVC025
     FM041100 36012G20KT 4SM PL OVC015
     FM041900 01012G20KT 2SM -SN OVC025
     FM042200 01010G18KT 2SM -SN OVC035=



000
FTUS44 KTSA 032000 AAA
TAFRVS
TAF AMD
KRVS 032006Z 0320/0418 19011KT P6SM OVC018
     FM040100 31012G22KT P6SM OVC015
     FM040600 01011G18KT 3SM -FZRA OVC010
     FM041000 01012G21KT 3SM -FZRAPL OVC007=



000
FTUS44 KTSA 032000 AAA
TAFTUL
TAF AMD
KTUL 032006Z 0320/0418 19014G20KT P6SM OVC018
     FM040100 31012G22KT P6SM OVC015
     FM040600 01013G22KT 3SM -FZRA OVC010
     FM041000 01013G22KT 3SM -FZRAPL OVC007=



000
FTUS44 KTSA 032000 AAA
TAFTUL
TAF AMD
KTUL 032006Z 0320/0418 19014G20KT P6SM OVC018
     FM040100 31012G22KT P6SM OVC015
     FM040600 01013G22KT 3SM -FZRA OVC010
     FM041000 01013G22KT 3SM -FZRAPL OVC007=



000
FTUS44 KTSA 032000 AAB
TAFMLC
TAF AMD
KMLC 032004Z 0320/0418 21008G17KT P6SM OVC006
     FM040000 33006KT 4SM BR OVC005
     FM040600 01010G18KT 4SM -RA OVC008=



000
FTUS44 KTSA 031700 AAA
TAFMLC
TAF AMD
KMLC 031746Z 0318/0418 21008G17KT 4SM BR OVC012
      TEMPO 0318/0322 3/4SM BR OVC002
     FM040000 33006KT 4SM BR OVC005
     FM040600 01010G18KT 4SM -RA OVC008=



000
FTUS44 KTSA 031700 AAA
TAFMLC
TAF AMD
KMLC 031746Z 0318/0418 21008G17KT 4SM BR OVC012
      TEMPO 0318/0322 3/4SM BR OVC002
     FM040000 33006KT 4SM BR OVC005
     FM040600 01010G18KT 4SM -RA OVC008=



000
FTUS44 KTSA 031700
TAFFSM
TAF
KFSM 031737Z 0318/0418 09005KT P6SM OVC012
      TEMPO 0318/0322 3/4SM BR OVC002
     FM032200 VRB06KT 2SM BR VCSH OVC010
     FM040600 35010KT 4SM -RA OVC008=



000
FTUS44 KTSA 031700
TAFFYV
TAF
KFYV 031737Z 0318/0418 22013G20KT P6SM OVC007
     FM032000 22009KT P6SM OVC009
     FM040200 31005KT P6SM VCSH OVC010
      TEMPO 0402/0406 3SM -RA BR OVC010
     FM040600 36010KT 3SM -FZRA OVC005=



000
FTUS44 KTSA 031700
TAFRVS
TAF
KRVS 031737Z 0318/0418 19011KT 5SM BR OVC007
     FM040100 31012G22KT P6SM OVC015
     FM040600 01011G18KT 3SM -FZRA OVC010
     FM041000 01012G21KT 3SM -FZRAPL OVC007=



000
FTUS44 KTSA 031700
TAFMLC
TAF
KMLC 031737Z 0318/0418 21008G17KT 4SM BR OVC012
      TEMPO 0318/0322 3/4SM BR OVC007
     FM040000 33006KT 4SM BR OVC005
     FM040600 01010G18KT 4SM -RA OVC008=



000
FTUS44 KTSA 031700
TAFTUL
TAF
KTUL 031737Z 0318/0418 19014G20KT 5SM BR OVC007
     FM040100 31012G22KT P6SM OVC015
     FM040600 01013G22KT 3SM -FZRA OVC010
     FM041000 01013G22KT 3SM -FZRAPL OVC007=



000
FTUS44 KTSA 031700
TAFXNA
TAF
KXNA 031737Z 0318/0418 21013G22KT P6SM OVC004
     FM032000 22009G19KT P6SM OVC010
     FM040200 33009KT P6SM VCSH OVC007
      TEMPO 0402/0406 3SM -RA BR OVC010
     FM040600 36010KT 3SM -FZRA OVC005=



000
FTUS44 KTSA 031700
TAFFSM
TAF
KFSM 031737Z 0318/0418 09005KT P6SM OVC012
      TEMPO 0318/0322 3/4SM BR OVC002
     FM032200 VRB06KT 2SM BR VCSH OVC010
     FM040600 35010KT 4SM -RA OVC008=



000
FTUS44 KTSA 031700
TAFFYV
TAF
KFYV 031737Z 0318/0418 22013G20KT P6SM OVC007
     FM032000 22009KT P6SM OVC009
     FM040200 31005KT P6SM VCSH OVC010
      TEMPO 0402/0406 3SM -RA BR OVC010
     FM040600 36010KT 3SM -FZRA OVC005=



000
FTUS44 KTSA 031700
TAFTUL
TAF
KTUL 031737Z 0318/0418 19014G20KT 5SM BR OVC007
     FM040100 31012G22KT P6SM OVC015
     FM040600 01013G22KT 3SM -FZRA OVC010
     FM041000 01013G22KT 3SM -FZRAPL OVC007=



000
FTUS44 KTSA 031700
TAFMLC
TAF
KMLC 031737Z 0318/0418 21008G17KT 4SM BR OVC012
      TEMPO 0318/0322 3/4SM BR OVC007
     FM040000 33006KT 4SM BR OVC005
     FM040600 01010G18KT 4SM -RA OVC008=



000
FTUS44 KTSA 031700
TAFRVS
TAF
KRVS 031737Z 0318/0418 19011KT 5SM BR OVC007
     FM040100 31012G22KT P6SM OVC015
     FM040600 01011G18KT 3SM -FZRA OVC010
     FM041000 01012G21KT 3SM -FZRAPL OVC007=



000
FTUS44 KTSA 031700
TAFXNA
TAF
KXNA 031737Z 0318/0418 21013G22KT P6SM OVC004
     FM032000 22009G19KT P6SM OVC010
     FM040200 33009KT P6SM VCSH OVC007
      TEMPO 0402/0406 3SM -RA BR OVC010
     FM040600 36010KT 3SM -FZRA OVC005=



000
FTUS44 KTSA 031600 AAB
TAFFSM
TAF AMD
KFSM 031609Z 0316/0412 10006KT P6SM OVC004
      TEMPO 0316/0318 1/4SM -DZ FG VV002
     FM031800 24008KT P6SM OVC015
     FM040200 31008KT P6SM VCSH OVC012
     FM040600 35010KT 4SM -RA OVC008=



000
FTUS44 KTSA 031600 AAB
TAFFSM
TAF AMD
KFSM 031609Z 0316/0412 10006KT P6SM OVC004
      TEMPO 0316/0318 1/4SM -DZ FG VV002
     FM031800 24008KT P6SM OVC015
     FM040200 31008KT P6SM VCSH OVC012
     FM040600 35010KT 4SM -RA OVC008=



000
FTUS44 KTSA 031400 AAA
TAFXNA
TAF AMD
KXNA 031456Z 0315/0412 21011KT P6SM OVC004
      TEMPO 0315/0317 2SM BR OVC003
     FM032000 22009G19KT P6SM OVC015
     FM040200 33009KT P6SM VCSH OVC015
      TEMPO 0402/0406 3SM -RA BR OVC010
     FM040600 36010KT 3SM -FZRA OVC005=



000
FTUS44 KTSA 031400 AAA
TAFXNA
TAF AMD
KXNA 031456Z 0315/0412 21011KT P6SM OVC004
      TEMPO 0315/0317 2SM BR OVC003
     FM032000 22009G19KT P6SM OVC015
     FM040200 33009KT P6SM VCSH OVC015
      TEMPO 0402/0406 3SM -RA BR OVC010
     FM040600 36010KT 3SM -FZRA OVC005=



000
FTUS44 KTSA 031400 AAA
TAFFSM
TAF AMD
KFSM 031435Z 0315/0412 10006KT P6SM OVC004
      TEMPO 0314/0318 1/4SM -DZ FG VV002
     FM031800 24008KT P6SM OVC015
     FM040200 31008KT P6SM VCSH OVC012
     FM040600 35010KT 4SM -RA OVC008=



000
FTUS44 KTSA 031400 AAA
TAFFYV
TAF AMD
KFYV 031413Z 0314/0412 19011KT P6SM OVC004
      TEMPO 0314/0317 1SM -DZ BR OVC003
     FM032000 22009KT P6SM OVC015
     FM040200 31005KT P6SM VCSH OVC015
      TEMPO 0402/0406 3SM -RA BR OVC010
     FM040600 36010KT 3SM -FZRA OVC005=



000
FTUS44 KTSA 031100
TAFFYV
TAF
KFYV 031120Z 0312/0412 20010KT 6SM BR OVC003
      TEMPO 0312/0314 3SM BR OVC004
     FM031400 19011KT P6SM OVC004
     FM032000 22009KT P6SM OVC015
     FM040200 31005KT P6SM VCSH OVC015
      TEMPO 0402/0406 3SM -RA BR OVC010
     FM040600 36010KT 3SM -FZRA OVC005=



000
FTUS44 KTSA 031100
TAFXNA
TAF
KXNA 031120Z 0312/0412 20007KT 3/4SM BR VV002
      TEMPO 0312/0314 3SM BR OVC004
     FM031400 21011KT P6SM OVC004
     FM032000 22009G19KT P6SM OVC015
     FM040200 33009KT P6SM VCSH OVC015
      TEMPO 0402/0406 3SM -RA BR OVC010
     FM040600 36010KT 3SM -FZRA OVC005=



000
FTUS44 KTSA 031100
TAFFSM
TAF
KFSM 031120Z 0312/0412 07008KT 5SM BR OVC005
     FM031400 10006KT P6SM OVC004
     FM031800 24008KT P6SM OVC015
     FM040200 31008KT P6SM VCSH OVC012
     FM040600 35010KT 4SM -RA OVC008=



000
FTUS44 KTSA 031100
TAFMLC
TAF
KMLC 031120Z 0312/0412 20009G17KT 5SM BR OVC003
     FM031800 21008G17KT 4SM BR OVC015
     FM040000 33006KT 4SM BR OVC015 PROB30 0400/0406 2SM -RA BR
      OVC008
     FM040600 01010G18KT 4SM -RA OVC008=



000
FTUS44 KTSA 031100
TAFRVS
TAF
KRVS 031120Z 0312/0412 19010G17KT 4SM -DZ BR OVC004
     FM031800 23014KT 5SM BR OVC015
     FM040100 31012G22KT P6SM SCT015 OVC050 PROB30 0401/0406 4SM -RA
      BR OVC015
     FM040600 01011G18KT 3SM -FZRA OVC010
     FM041000 01012G21KT 3SM -FZRAPL OVC007=



000
FTUS44 KTSA 031100
TAFTUL
TAF
KTUL 031120Z 0312/0412 18016G22KT 4SM -DZ BR OVC004
     FM031800 23014KT 5SM BR OVC015
     FM040100 31012G22KT P6SM SCT015 OVC050 PROB30 0401/0406 4SM -RA
      BR OVC015
     FM040600 01013G22KT 3SM -FZRA OVC010
     FM041000 01013G22KT 3SM -FZRAPL OVC007=



000
FTUS44 KTSA 031000 AAB
TAFFYV
TAF AMD
KFYV 031016Z 0310/0406 20008KT P6SM OVC007
      TEMPO 0310/0314 5SM BR OVC003
     FM031400 19011KT P6SM OVC004
     FM032000 22009KT P6SM OVC015 PROB30 0320/0402 2SM -RA BR OVC007
     FM040200 31005KT P6SM VCSH OVC015
      TEMPO 0402/0406 2SM -RA BR OVC007=



000
FTUS44 KTSA 030900 AAA
TAFFSM
TAF AMD
KFSM 030940Z 0310/0406 06007KT P6SM OVC008
     FM031400 10006KT P6SM OVC004
     FM031800 24008KT P6SM OVC015 PROB30 0320/0402 2SM -RA BR OVC007
     FM040200 31008KT P6SM VCSH OVC010
      TEMPO 0402/0406 2SM -RA BR OVC007=



000
FTUS44 KTSA 030900 AAA
TAFXNA
TAF AMD
KXNA 030939Z 0310/0406 20007KT P6SM OVC007
      TEMPO 0310/0314 3SM BR OVC004
     FM031400 21011KT P6SM OVC004
     FM032000 22009G19KT P6SM OVC015 PROB30 0320/0402 2SM -RA BR
      OVC007
     FM040200 33009KT P6SM VCSH OVC015
      TEMPO 0402/0406 2SM -RA BR OVC007=



000
FTUS44 KTSA 030900 AAA
TAFXNA
TAF AMD
KXNA 030939Z 0310/0406 20007KT P6SM OVC007
      TEMPO 0310/0314 3SM BR OVC004
     FM031400 21011KT P6SM OVC004
     FM032000 22009G19KT P6SM OVC015 PROB30 0320/0402 2SM -RA BR
      OVC007
     FM040200 33009KT P6SM VCSH OVC015
      TEMPO 0402/0406 2SM -RA BR OVC007=



000
FTUS44 KTSA 030900 AAA
TAFFYV
TAF AMD
KFYV 030938Z 0310/0406 20008KT P6SM OVC007
      TEMPO 0310/0314 3SM BR OVC004
     FM031400 19011KT P6SM OVC004
     FM032000 22009KT P6SM OVC015 PROB30 0320/0402 2SM -RA BR OVC007
     FM040200 31005KT P6SM VCSH OVC015
      TEMPO 0402/0406 2SM -RA BR OVC007=



000
FTUS44 KTSA 030900 AAA
TAFFYV
TAF AMD
KFYV 030938Z 0310/0406 20008KT P6SM OVC007
      TEMPO 0310/0314 3SM BR OVC004
     FM031400 19011KT P6SM OVC004
     FM032000 22009KT P6SM OVC015 PROB30 0320/0402 2SM -RA BR OVC007
     FM040200 31005KT P6SM VCSH OVC015
      TEMPO 0402/0406 2SM -RA BR OVC007=



000
FTUS44 KTSA 030500
TAFXNA
TAF
KXNA 030525Z 0306/0406 20004KT P6SM OVC013
     FM030800 18009KT 3SM BR OVC007
     FM031400 21011KT P6SM OVC004
     FM032000 22009G19KT P6SM OVC015 PROB30 0320/0402 2SM -RA BR
      OVC007
     FM040200 33009KT P6SM VCSH OVC015
      TEMPO 0402/0406 2SM -RA BR OVC007=



000
FTUS44 KTSA 030500
TAFRVS
TAF
KRVS 030525Z 0306/0406 17008KT 3SM BR OVC004
      TEMPO 0308/0312 3SM BR OVC003
     FM031200 19013KT P6SM OVC007
     FM031800 23014KT 5SM BR OVC015 PROB30 0319/0401 2SM -RA BR
      OVC015
     FM040100 31012G22KT P6SM SCT015 OVC050 PROB30 0401/0406 4SM -RA
      BR OVC015=



000
FTUS44 KTSA 030500
TAFTUL
TAF
KTUL 030525Z 0306/0406 16010KT P6SM OVC007
      TEMPO 0308/0312 3SM BR OVC005
     FM031200 19013KT P6SM OVC007
     FM031800 23014KT 5SM BR OVC015 PROB30 0319/0401 2SM -RA BR
      OVC015
     FM040100 31012G22KT P6SM SCT015 OVC050 PROB30 0401/0406 4SM -RA
      BR OVC015=



000
FTUS44 KTSA 030500
TAFMLC
TAF
KMLC 030525Z 0306/0406 18007KT P6SM OVC004
      TEMPO 0308/0312 1SM BR OVC001
     FM031200 19011KT 3SM BR OVC005
     FM031800 21008G17KT 4SM BR OVC015 PROB30 0318/0324 2SM -RA BR
      OVC004
     FM040000 33006KT 4SM BR OVC015 PROB30 0400/0406 2SM -RA BR
      OVC005=



000
FTUS44 KTSA 030500
TAFFSM
TAF
KFSM 030525Z 0306/0406 09008KT P6SM OVC014
     FM031000 08007KT 3SM BR OVC007
     FM031400 10006KT P6SM OVC004
     FM031800 24008KT P6SM OVC015 PROB30 0320/0402 2SM -RA BR OVC007
     FM040200 31008KT P6SM VCSH OVC010
      TEMPO 0402/0406 2SM -RA BR OVC007=



000
FTUS44 KTSA 030500
TAFFYV
TAF
KFYV 030525Z 0306/0406 20008KT P6SM OVC012
     FM030800 18009KT 3SM BR OVC007
     FM031400 19011KT P6SM OVC004
     FM032000 22009KT P6SM OVC015 PROB30 0320/0402 2SM -RA BR OVC007
     FM040200 31005KT P6SM VCSH OVC015
      TEMPO 0402/0406 2SM -RA BR OVC007=



000
FTUS44 KTSA 030500
TAFFYV
TAF
KFYV 030525Z 0306/0406 20008KT P6SM OVC012
     FM030800 18009KT 3SM BR OVC007
     FM031400 19011KT P6SM OVC004
     FM032000 22009KT P6SM OVC015 PROB30 0320/0402 2SM -RA BR OVC007
     FM040200 31005KT P6SM VCSH OVC015
      TEMPO 0402/0406 2SM -RA BR OVC007=



000
FTUS44 KTSA 030500
TAFFSM
TAF
KFSM 030525Z 0306/0406 09008KT P6SM OVC014
     FM031000 08007KT 3SM BR OVC007
     FM031400 10006KT P6SM OVC004
     FM031800 24008KT P6SM OVC015 PROB30 0320/0402 2SM -RA BR OVC007
     FM040200 31008KT P6SM VCSH OVC010
      TEMPO 0402/0406 2SM -RA BR OVC007=



000
FTUS44 KTSA 030500
TAFMLC
TAF
KMLC 030525Z 0306/0406 18007KT P6SM OVC004
      TEMPO 0308/0312 1SM BR OVC001
     FM031200 19011KT 3SM BR OVC005
     FM031800 21008G17KT 4SM BR OVC015 PROB30 0318/0324 2SM -RA BR
      OVC004
     FM040000 33006KT 4SM BR OVC015 PROB30 0400/0406 2SM -RA BR
      OVC005=



000
FTUS44 KTSA 030500
TAFTUL
TAF
KTUL 030525Z 0306/0406 16010KT P6SM OVC007
      TEMPO 0308/0312 3SM BR OVC005
     FM031200 19013KT P6SM OVC007
     FM031800 23014KT 5SM BR OVC015 PROB30 0319/0401 2SM -RA BR
      OVC015
     FM040100 31012G22KT P6SM SCT015 OVC050 PROB30 0401/0406 4SM -RA
      BR OVC015=



000
FTUS44 KTSA 030500
TAFRVS
TAF
KRVS 030525Z 0306/0406 17008KT 3SM BR OVC004
      TEMPO 0308/0312 3SM BR OVC003
     FM031200 19013KT P6SM OVC007
     FM031800 23014KT 5SM BR OVC015 PROB30 0319/0401 2SM -RA BR
      OVC015
     FM040100 31012G22KT P6SM SCT015 OVC050 PROB30 0401/0406 4SM -RA
      BR OVC015=



000
FTUS44 KTSA 030500
TAFXNA
TAF
KXNA 030525Z 0306/0406 20004KT P6SM OVC013
     FM030800 18009KT 3SM BR OVC007
     FM031400 21011KT P6SM OVC004
     FM032000 22009G19KT P6SM OVC015 PROB30 0320/0402 2SM -RA BR
      OVC007
     FM040200 33009KT P6SM VCSH OVC015
      TEMPO 0402/0406 2SM -RA BR OVC007=



000
FTUS44 KTSA 030400 AAA
TAFXNA
TAF AMD
KXNA 030404Z 0304/0324 15008KT P6SM OVC021
     FM030800 18009KT 3SM BR OVC007
     FM031400 21011KT 2SM BR VCSH OVC004
     FM032000 22009KT 4SM BR OVC015
      TEMPO 0320/0324 2SM -RA BR OVC007=



000
FTUS44 KTSA 030400 AAA
TAFXNA
TAF AMD
KXNA 030404Z 0304/0324 15008KT P6SM OVC021
     FM030800 18009KT 3SM BR OVC007
     FM031400 21011KT 2SM BR VCSH OVC004
     FM032000 22009KT 4SM BR OVC015
      TEMPO 0320/0324 2SM -RA BR OVC007=



000
FTUS44 KTSA 030400 AAA
TAFRVS
TAF AMD
KRVS 030404Z 0304/0324 17008KT P6SM OVC008
      TEMPO 0308/0312 3SM BR OVC003
     FM031200 19013KT 4SM BR OVC007
     FM031800 21014KT 5SM BR OVC015 PROB30 0318/0324 2SM -RA BR
      OVC015=



000
FTUS44 KTSA 030400 AAA
TAFRVS
TAF AMD
KRVS 030404Z 0304/0324 17008KT P6SM OVC008
      TEMPO 0308/0312 3SM BR OVC003
     FM031200 19013KT 4SM BR OVC007
     FM031800 21014KT 5SM BR OVC015 PROB30 0318/0324 2SM -RA BR
      OVC015=



000
FTUS44 KTSA 030400 AAA
TAFTUL
TAF AMD
KTUL 030403Z 0304/0324 15010KT P6SM OVC010
      TEMPO 0308/0312 3SM BR OVC005
     FM031200 19013KT 4SM BR OVC007
     FM031800 21014KT 5SM BR OVC015 PROB30 0318/0324 2SM -RA BR
      OVC015=



000
FTUS44 KTSA 030400 AAA
TAFFYV
TAF AMD
KFYV 030401Z 0304/0324 17010KT P6SM SCT014 OVC045
     FM030800 18009KT 3SM BR OVC007
     FM031400 19011KT 2SM BR VCSH OVC004
     FM032000 22009KT 4SM BR OVC015
      TEMPO 0320/0324 2SM -RA BR OVC007=



000
FTUS44 KTSA 030400 AAB
TAFMLC
TAF AMD
KMLC 030401Z 0304/0324 19006KT 5SM BR OVC003
      TEMPO 0308/0312 1SM BR OVC001
     FM031200 19011KT 3SM BR OVC005
     FM031800 21008KT 4SM BR OVC015 PROB30 0318/0324 2SM -RA BR
      OVC004=



000
FTUS44 KTSA 030000 AAA
TAFMLC
TAF AMD
KMLC 030010Z 0300/0324 00000KT 4SM BR OVC007
      TEMPO 0300/0304 1SM BR OVC004
     FM030400 16009KT 2SM BR OVC005
     FM031200 19011KT 3SM BR OVC005 PROB30 0312/0318 2SM -RA BR
      OVC004
     FM031800 21008KT 4SM BR OVC015 PROB30 0318/0324 2SM -RA BR
      OVC004=



000
FTUS44 KTSA 030000 AAA
TAFMLC
TAF AMD
KMLC 030010Z 0300/0324 00000KT 4SM BR OVC007
      TEMPO 0300/0304 1SM BR OVC004
     FM030400 16009KT 2SM BR OVC005
     FM031200 19011KT 3SM BR OVC005 PROB30 0312/0318 2SM -RA BR
      OVC004
     FM031800 21008KT 4SM BR OVC015 PROB30 0318/0324 2SM -RA BR
      OVC004=



000
FTUS44 KTSA 022300
TAFFSM
TAF
KFSM 022321Z 0300/0324 09006KT P6SM OVC021
     FM030400 08008KT 5SM BR OVC007
     FM030800 08007KT 3SM BR OVC007
     FM031400 10006KT 2SM BR VCSH OVC004
     FM031800 24008KT 4SM BR OVC015
      TEMPO 0320/0324 2SM -RA BR OVC007=



000
FTUS44 KTSA 022300
TAFMLC
TAF
KMLC 022321Z 0300/0324 00000KT 4SM BR OVC007
      TEMPO 0300/0302 1SM BR
     FM030200 16009KT 2SM BR OVC005
     FM031200 19011KT 3SM BR OVC005 PROB30 0312/0318 2SM -RA BR
      OVC004
     FM031800 21008KT 4SM BR OVC015 PROB30 0318/0324 2SM -RA BR
      OVC004=



000
FTUS44 KTSA 022300
TAFXNA
TAF
KXNA 022321Z 0300/0324 09003KT P6SM OVC020
     FM030400 16008KT 5SM BR OVC007
     FM030800 18009KT 3SM BR OVC007
     FM031400 21011KT 2SM BR VCSH OVC004
     FM032000 22009KT 4SM BR OVC015
      TEMPO 0320/0324 2SM -RA BR OVC007=



000
FTUS44 KTSA 022300
TAFTUL
TAF
KTUL 022321Z 0300/0324 00000KT 6SM BR OVC011
     FM030200 17011KT 2SM BR OVC008
     FM031200 19013KT 4SM BR OVC007 PROB30 0312/0318 2SM -DZ BR
      OVC004
     FM031800 21014KT 5SM BR OVC015 PROB30 0318/0324 2SM -RA BR
      OVC015=



000
FTUS44 KTSA 022300
TAFRVS
TAF
KRVS 022321Z 0300/0324 00000KT 4SM BR OVC006
      TEMPO 0300/0304 1SM BR
     FM030400 17011KT 1SM BR OVC006
     FM031200 19013KT 4SM BR OVC007 PROB30 0312/0318 2SM -DZ BR
      OVC004
     FM031800 21014KT 5SM BR OVC015 PROB30 0318/0324 2SM -RA BR
      OVC015=



000
FTUS44 KTSA 022300
TAFFYV
TAF
KFYV 022321Z 0300/0324 00000KT P6SM OVC018
     FM030400 16008KT 5SM BR OVC007
     FM030800 18009KT 3SM BR OVC007
     FM031400 19011KT 2SM BR VCSH OVC004
     FM032000 22009KT 4SM BR OVC015
      TEMPO 0320/0324 2SM -RA BR OVC007=



000
FTUS44 KTSA 022200 AAB
TAFMLC
TAF AMD
KMLC 022215Z 0222/0318 04003KT 4SM BR OVC009
      TEMPO 0222/0302 1SM BR
     FM030200 16009KT 2SM BR OVC005
     FM031200 19011KT 3SM BR OVC005 PROB30 0312/0318 2SM -RA BR
      OVC004=



000
FTUS44 KTSA 022200 AAB
TAFMLC
TAF AMD
KMLC 022215Z 0222/0318 04003KT 4SM BR OVC009
      TEMPO 0222/0302 1SM BR
     FM030200 16009KT 2SM BR OVC005
     FM031200 19011KT 3SM BR OVC005 PROB30 0312/0318 2SM -RA BR
      OVC004=



000
FTUS44 KTSA 022100 AAA
TAFMLC
TAF AMD
KMLC 022130Z 0222/0318 08008KT 5SM BR OVC010
     FM030000 12006KT 5SM BR OVC007
     FM030600 16009KT 3SM BR OVC005
     FM031200 19011KT 3SM BR OVC005 PROB30 0312/0318 2SM -RA BR
      OVC004=



000
FTUS44 KTSA 022100 AAA
TAFTUL
TAF AMD
KTUL 022129Z 0221/0318 13009KT 3SM BR OVC011
     FM030200 17011KT 3SM BR OVC008
     FM031200 19013KT 4SM BR OVC007 PROB30 0312/0318 2SM -DZ BR
      OVC004=



000
FTUS44 KTSA 021700
TAFFYV
TAF
KFYV 021740Z 0218/0318 08010KT P6SM BKN025
     FM022200 13009KT P6SM BKN015
     FM030400 16008KT 5SM BR OVC007
     FM030800 18009KT 3SM BR OVC007 PROB30 0308/0314 2SM -RA BR
      OVC004
     FM031400 19011KT 2SM BR VCSH OVC004=



000
FTUS44 KTSA 021700
TAFRVS
TAF
KRVS 021740Z 0218/0318 13008KT P6SM OVC012
     FM030200 17006KT 3SM BR OVC008
     FM031200 19011KT 3SM BR OVC007 PROB30 0312/0318 2SM -DZ BR
      OVC004=



000
FTUS44 KTSA 021700
TAFFSM
TAF
KFSM 021740Z 0218/0318 10011KT P6SM BKN019
     FM030400 08008KT 5SM BR OVC007
     FM030800 08007KT 3SM BR OVC007 PROB30 0308/0314 2SM -RA BR
      OVC004
     FM031400 10006KT 2SM BR VCSH OVC004=



000
FTUS44 KTSA 021700
TAFXNA
TAF
KXNA 021740Z 0218/0318 10011KT P6SM BKN025
     FM022300 13010KT P6SM BKN015
     FM030400 16008KT 4SM BR OVC008
     FM030800 17009KT 3SM BR OVC007 PROB30 0308/0314 2SM -RA BR
      OVC004
     FM031400 19012KT 2SM BR VCSH OVC004=



000
FTUS44 KTSA 021700
TAFMLC
TAF
KMLC 021740Z 0218/0318 05005KT 3SM BR OVC005
     FM022100 08008KT 4SM BR OVC006
     FM030000 12006KT 5SM BR OVC007
     FM030600 16009KT 3SM BR OVC005
     FM031200 19011KT 3SM BR OVC005 PROB30 0312/0318 2SM -RA BR
      OVC004=



000
FTUS44 KTSA 021700
TAFFYV
TAF
KFYV 021740Z 0218/0318 08010KT P6SM BKN025
     FM022200 13009KT P6SM BKN015
     FM030400 16008KT 5SM BR OVC007
     FM030800 18009KT 3SM BR OVC007 PROB30 0308/0314 2SM -RA BR
      OVC004
     FM031400 19011KT 2SM BR VCSH OVC004=



000
FTUS44 KTSA 021700
TAFXNA
TAF
KXNA 021740Z 0218/0318 10011KT P6SM BKN025
     FM022300 13010KT P6SM BKN015
     FM030400 16008KT 4SM BR OVC008
     FM030800 17009KT 3SM BR OVC007 PROB30 0308/0314 2SM -RA BR
      OVC004
     FM031400 19012KT 2SM BR VCSH OVC004=



000
FTUS44 KTSA 021700
TAFTUL
TAF
KTUL 021740Z 0218/0318 13009KT P6SM OVC015
     FM030200 17011KT 5SM BR OVC008
     FM031200 19013KT 4SM BR OVC007 PROB30 0312/0318 2SM -DZ BR
      OVC004=



000
FTUS44 KTSA 021700
TAFFSM
TAF
KFSM 021740Z 0218/0318 10011KT P6SM BKN019
     FM030400 08008KT 5SM BR OVC007
     FM030800 08007KT 3SM BR OVC007 PROB30 0308/0314 2SM -RA BR
      OVC004
     FM031400 10006KT 2SM BR VCSH OVC004=



000
FTUS44 KTSA 021700
TAFRVS
TAF
KRVS 021740Z 0218/0318 13008KT P6SM OVC012
     FM030200 17006KT 3SM BR OVC008
     FM031200 19011KT 3SM BR OVC007 PROB30 0312/0318 2SM -DZ BR
      OVC004=



000
FTUS44 KTSA 021700
TAFMLC
TAF
KMLC 021740Z 0218/0318 05005KT 3SM BR OVC005
     FM022100 08008KT 4SM BR OVC006
     FM030000 12006KT 5SM BR OVC007
     FM030600 16009KT 3SM BR OVC005
     FM031200 19011KT 3SM BR OVC005 PROB30 0312/0318 2SM -RA BR
      OVC004=



000
FTUS44 KTSA 021700
TAFTUL
TAF
KTUL 021740Z 0218/0318 13009KT P6SM OVC015
     FM030200 17011KT 5SM BR OVC008
     FM031200 19013KT 4SM BR OVC007 PROB30 0312/0318 2SM -DZ BR
      OVC004=



000
FTUS44 KTSA 021500 AAA
TAFMLC
TAF AMD
KMLC 021502Z 0215/0312 04007KT 3SM BR OVC007
     FM022100 07005KT 5SM BR OVC007
     FM030000 12003KT 5SM BR OVC007=



000
FTUS44 KTSA 021400 AAA
TAFFYV
TAF AMD
KFYV 021409Z 0214/0312 08010KT P6SM BKN025
     FM021600 10009KT 6SM BR OVC015
     FM021800 13005KT 5SM BR OVC007
     FM030300 16005KT 3SM BR OVC007 PROB30 0306/0312 2SM -DZ BR
      OVC004=



000
FTUS44 KTSA 021400 AAA
TAFFYV
TAF AMD
KFYV 021409Z 0214/0312 08010KT P6SM BKN025
     FM021600 10009KT 6SM BR OVC015
     FM021800 13005KT 5SM BR OVC007
     FM030300 16005KT 3SM BR OVC007 PROB30 0306/0312 2SM -DZ BR
      OVC004=



000
FTUS44 KTSA 021400 AAA
TAFXNA
TAF AMD
KXNA 021407Z 0214/0312 10011KT P6SM BKN025
     FM021700 11010KT 5SM BR OVC015
     FM021900 12009KT 4SM BR OVC008
     FM030300 16005KT 3SM BR OVC007 PROB30 0306/0312 2SM -DZ BR
      OVC004=



000
FTUS44 KTSA 021100
TAFMLC
TAF
KMLC 021137Z 0212/0312 01007KT P6SM OVC012
     FM021600 05005KT 5SM BR OVC007
     FM030000 12003KT 5SM BR OVC007=



000
FTUS44 KTSA 021100
TAFXNA
TAF
KXNA 021137Z 0212/0312 05006KT P6SM OVC012
     FM021600 13005KT 5SM BR OVC007
     FM030300 16005KT 3SM BR OVC007 PROB30 0306/0312 2SM -DZ BR
      OVC004=



000
FTUS44 KTSA 021100
TAFFSM
TAF
KFSM 021137Z 0212/0312 02005KT P6SM OVC019
     FM021600 08005KT 5SM BR OVC007
     FM030300 08005KT 3SM BR OVC007 PROB30 0306/0312 2SM -DZ BR
      OVC004=



000
FTUS44 KTSA 021100
TAFTUL
TAF
KTUL 021137Z 0212/0312 34005KT P6SM OVC250
     FM021600 13006KT P6SM OVC015
     FM030300 16009KT 3SM BR OVC008=



000
FTUS44 KTSA 021100
TAFMLC
TAF
KMLC 021137Z 0212/0312 01007KT P6SM OVC012
     FM021600 05005KT 5SM BR OVC007
     FM030000 12003KT 5SM BR OVC007=



000
FTUS44 KTSA 021100
TAFXNA
TAF
KXNA 021137Z 0212/0312 05006KT P6SM OVC012
     FM021600 13005KT 5SM BR OVC007
     FM030300 16005KT 3SM BR OVC007 PROB30 0306/0312 2SM -DZ BR
      OVC004=



000
FTUS44 KTSA 021100
TAFFYV
TAF
KFYV 021137Z 0212/0312 06005KT P6SM OVC010
     FM021600 13005KT 5SM BR OVC007
     FM030300 16005KT 3SM BR OVC007 PROB30 0306/0312 2SM -DZ BR
      OVC004=



000
FTUS44 KTSA 021100
TAFRVS
TAF
KRVS 021137Z 0212/0312 01005KT P6SM OVC250
     FM021600 13006KT P6SM OVC015
     FM030300 17006KT 3SM BR OVC008=



000
FTUS44 KTSA 021100
TAFRVS
TAF
KRVS 021137Z 0212/0312 01005KT P6SM OVC250
     FM021600 13006KT P6SM OVC015
     FM030300 17006KT 3SM BR OVC008=



000
FTUS44 KTSA 021100
TAFFYV
TAF
KFYV 021137Z 0212/0312 06005KT P6SM OVC010
     FM021600 13005KT 5SM BR OVC007
     FM030300 16005KT 3SM BR OVC007 PROB30 0306/0312 2SM -DZ BR
      OVC004=



000
FTUS44 KTSA 021100
TAFTUL
TAF
KTUL 021137Z 0212/0312 34005KT P6SM OVC250
     FM021600 13006KT P6SM OVC015
     FM030300 16009KT 3SM BR OVC008=



000
FTUS44 KTSA 021100
TAFFSM
TAF
KFSM 021137Z 0212/0312 02005KT P6SM OVC019
     FM021600 08005KT 5SM BR OVC007
     FM030300 08005KT 3SM BR OVC007 PROB30 0306/0312 2SM -DZ BR
      OVC004=



000
FTUS44 KTSA 020500
TAFFYV
TAF
KFYV 020537Z 0206/0306 02003KT 4SM BR OVC008
     FM021600 13005KT 5SM BR OVC007=



000
FTUS44 KTSA 020500
TAFMLC
TAF
KMLC 020537Z 0206/0306 01006KT P6SM SCT010 OVC035
      TEMPO 0206/0210 5SM BR BKN010
     FM021000 01006KT 4SM BR OVC007
     FM021600 05005KT 5SM BR OVC007
     FM030000 12003KT 5SM BR OVC007=



000
FTUS44 KTSA 020500
TAFXNA
TAF
KXNA 020537Z 0206/0306 02006KT P6SM BKN015
      TEMPO 0206/0210 5SM BR SCT015 BKN250
     FM021000 04005KT 4SM BR OVC008
     FM021600 13006KT 5SM BR OVC007=



000
FTUS44 KTSA 020500
TAFFSM
TAF
KFSM 020537Z 0206/0306 34006KT P6SM SCT012 OVC025
      TEMPO 0206/0210 4SM BR BKN012
     FM021000 06006KT 4SM BR OVC010
     FM021600 08006KT 5SM BR OVC010=



000
FTUS44 KTSA 020500
TAFTUL
TAF
KTUL 020537Z 0206/0306 01006KT P6SM SCT025 BKN250
      TEMPO 0206/0210 BKN025
     FM021400 05006KT P6SM SCT020 BKN250
     FM021700 13006KT P6SM OVC015
     FM030000 16008KT P6SM OVC012=



000
FTUS44 KTSA 020500
TAFRVS
TAF
KRVS 020537Z 0206/0306 03006KT P6SM SCT025 BKN250
      TEMPO 0206/0210 BKN025
     FM021400 05006KT P6SM SCT020 BKN050
     FM021700 13006KT P6SM OVC015
     FM030000 15006KT P6SM OVC012=



000
FTUS44 KTSA 020500
TAFXNA
TAF
KXNA 020537Z 0206/0306 02006KT P6SM BKN015
      TEMPO 0206/0210 5SM BR SCT015 BKN250
     FM021000 04005KT 4SM BR OVC008
     FM021600 13006KT 5SM BR OVC007=



000
FTUS44 KTSA 020500
TAFFSM
TAF
KFSM 020537Z 0206/0306 34006KT P6SM SCT012 OVC025
      TEMPO 0206/0210 4SM BR BKN012
     FM021000 06006KT 4SM BR OVC010
     FM021600 08006KT 5SM BR OVC010=



000
FTUS44 KTSA 020500
TAFFYV
TAF
KFYV 020537Z 0206/0306 02003KT 4SM BR OVC008
     FM021600 13005KT 5SM BR OVC007=



000
FTUS44 KTSA 020500
TAFRVS
TAF
KRVS 020537Z 0206/0306 03006KT P6SM SCT025 BKN250
      TEMPO 0206/0210 BKN025
     FM021400 05006KT P6SM SCT020 BKN050
     FM021700 13006KT P6SM OVC015
     FM030000 15006KT P6SM OVC012=



000
FTUS44 KTSA 020500
TAFMLC
TAF
KMLC 020537Z 0206/0306 01006KT P6SM SCT010 OVC035
      TEMPO 0206/0210 5SM BR BKN010
     FM021000 01006KT 4SM BR OVC007
     FM021600 05005KT 5SM BR OVC007
     FM030000 12003KT 5SM BR OVC007=



000
FTUS44 KTSA 020500
TAFTUL
TAF
KTUL 020537Z 0206/0306 01006KT P6SM SCT025 BKN250
      TEMPO 0206/0210 BKN025
     FM021400 05006KT P6SM SCT020 BKN250
     FM021700 13006KT P6SM OVC015
     FM030000 16008KT P6SM OVC012=



000
FTUS44 KTSA 012300
TAFXNA
TAF
KXNA 012339Z 0200/0224 36004KT P6SM OVC007
      TEMPO 0200/0204 5SM BR
     FM020400 02003KT 4SM BR OVC007
     FM021600 13006KT 5SM BR OVC007=



000
FTUS44 KTSA 012300
TAFRVS
TAF
KRVS 012339Z 0200/0224 02006KT P6SM BKN025
      TEMPO 0200/0204 SCT025 BKN250
     FM020400 03006KT P6SM SCT025 BKN050
     FM021400 05007KT P6SM SCT020 BKN050
     FM021700 14006KT P6SM OVC015=



000
FTUS44 KTSA 012300
TAFFYV
TAF
KFYV 012339Z 0200/0224 36004KT P6SM OVC009
      TEMPO 0200/0204 5SM BR
     FM020400 02003KT 4SM BR OVC007
     FM021600 13005KT 5SM BR OVC007=



000
FTUS44 KTSA 012300
TAFTUL
TAF
KTUL 012339Z 0200/0224 36006KT P6SM BKN025
      TEMPO 0200/0204 SCT025 BKN250
     FM020400 01007KT P6SM SCT025 BKN050
     FM021400 05008KT P6SM SCT020 BKN050
     FM021700 15006KT P6SM OVC015=



000
FTUS44 KTSA 012300
TAFFSM
TAF
KFSM 012339Z 0200/0224 33006KT P6SM OVC015
     FM020400 33006KT P6SM OVC009
      TEMPO 0204/0208 4SM BR
     FM020900 05006KT 4SM BR OVC007
     FM021600 08006KT 5SM BR OVC007=



000
FTUS44 KTSA 012300
TAFMLC
TAF
KMLC 012339Z 0200/0224 01008KT P6SM OVC009
     FM020700 01008KT 4SM BR OVC007
     FM021500 05005KT 5SM BR OVC007=



000
FTUS44 KTSA 012300
TAFFSM
TAF
KFSM 012339Z 0200/0224 33006KT P6SM OVC015
     FM020400 33006KT P6SM OVC009
      TEMPO 0204/0208 4SM BR
     FM020900 05006KT 4SM BR OVC007
     FM021600 08006KT 5SM BR OVC007=



000
FTUS44 KTSA 012300
TAFFYV
TAF
KFYV 012339Z 0200/0224 36004KT P6SM OVC009
      TEMPO 0200/0204 5SM BR
     FM020400 02003KT 4SM BR OVC007
     FM021600 13005KT 5SM BR OVC007=



000
FTUS44 KTSA 012300
TAFRVS
TAF
KRVS 012339Z 0200/0224 02006KT P6SM BKN025
      TEMPO 0200/0204 SCT025 BKN250
     FM020400 03006KT P6SM SCT025 BKN050
     FM021400 05007KT P6SM SCT020 BKN050
     FM021700 14006KT P6SM OVC015=



000
FTUS44 KTSA 012300
TAFXNA
TAF
KXNA 012339Z 0200/0224 36004KT P6SM OVC007
      TEMPO 0200/0204 5SM BR
     FM020400 02003KT 4SM BR OVC007
     FM021600 13006KT 5SM BR OVC007=



000
FTUS44 KTSA 012300
TAFTUL
TAF
KTUL 012339Z 0200/0224 36006KT P6SM BKN025
      TEMPO 0200/0204 SCT025 BKN250
     FM020400 01007KT P6SM SCT025 BKN050
     FM021400 05008KT P6SM SCT020 BKN050
     FM021700 15006KT P6SM OVC015=



000
FTUS44 KTSA 012300
TAFMLC
TAF
KMLC 012339Z 0200/0224 01008KT P6SM OVC009
     FM020700 01008KT 4SM BR OVC007
     FM021500 05005KT 5SM BR OVC007=



000
FTUS44 KTSA 011900 AAA
TAFFSM
TAF AMD
KFSM 011919Z 0119/0218 VRB04KT 4SM BR OVC005
     FM020200 31005KT P6SM OVC012
     FM020800 06005KT P6SM BKN008 BKN015=



000
FTUS44 KTSA 011900 AAA
TAFFSM
TAF AMD
KFSM 011919Z 0119/0218 VRB04KT 4SM BR OVC005
     FM020200 31005KT P6SM OVC012
     FM020800 06005KT P6SM BKN008 BKN015=



000
FTUS44 KTSA 011700
TAFTUL
TAF
KTUL 011740Z 0118/0218 36007KT P6SM SCT008 BKN012
     FM020000 36006KT P6SM BKN022
     FM021500 05009KT P6SM SCT010 BKN020=



000
FTUS44 KTSA 011700
TAFXNA
TAF
KXNA 011740Z 0118/0218 36006KT 4SM BR OVC006
     FM012000 01006KT 5SM BR OVC008
     FM020100 36005KT P6SM OVC012
     FM021500 09007KT P6SM SCT010 BKN018=



000
FTUS44 KTSA 011700
TAFMLC
TAF
KMLC 011740Z 0118/0218 36006KT 4SM BR OVC005
     FM012000 01006KT 6SM BR OVC008
     FM020000 01007KT P6SM OVC012
     FM020700 02006KT 4SM BR OVC007
     FM021500 06007KT 4SM BR OVC004=



000
FTUS44 KTSA 011700
TAFRVS
TAF
KRVS 011740Z 0118/0218 02005KT P6SM SCT008 BKN012
     FM020000 01004KT P6SM BKN022
     FM021500 05007KT P6SM SCT010 BKN020=



000
FTUS44 KTSA 011700
TAFFSM
TAF
KFSM 011740Z 0118/0218 VRB04KT 2SM BR OVC005
      TEMPO 0118/0120 1SM BR OVC003
     FM020200 31005KT P6SM OVC012
     FM020800 06005KT P6SM BKN008 BKN015=



000
FTUS44 KTSA 011700
TAFXNA
TAF
KXNA 011740Z 0118/0218 36006KT 4SM BR OVC006
     FM012000 01006KT 5SM BR OVC008
     FM020100 36005KT P6SM OVC012
     FM021500 09007KT P6SM SCT010 BKN018=



000
FTUS44 KTSA 011700
TAFTUL
TAF
KTUL 011740Z 0118/0218 36007KT P6SM SCT008 BKN012
     FM020000 36006KT P6SM BKN022
     FM021500 05009KT P6SM SCT010 BKN020=



000
FTUS44 KTSA 011700
TAFFYV
TAF
KFYV 011740Z 0118/0218 32005KT 3SM BR OVC005
     FM012000 01006KT 5SM BR OVC007
     FM020100 36003KT P6SM OVC012
     FM021500 09007KT P6SM SCT010 BKN018=



000
FTUS44 KTSA 011700
TAFFSM
TAF
KFSM 011740Z 0118/0218 VRB04KT 2SM BR OVC005
      TEMPO 0118/0120 1SM BR OVC003
     FM020200 31005KT P6SM OVC012
     FM020800 06005KT P6SM BKN008 BKN015=



000
FTUS44 KTSA 011700
TAFRVS
TAF
KRVS 011740Z 0118/0218 02005KT P6SM SCT008 BKN012
     FM020000 01004KT P6SM BKN022
     FM021500 05007KT P6SM SCT010 BKN020=



000
FTUS44 KTSA 011700
TAFMLC
TAF
KMLC 011740Z 0118/0218 36006KT 4SM BR OVC005
     FM012000 01006KT 6SM BR OVC008
     FM020000 01007KT P6SM OVC012
     FM020700 02006KT 4SM BR OVC007
     FM021500 06007KT 4SM BR OVC004=



000
FTUS44 KTSA 011700
TAFFYV
TAF
KFYV 011740Z 0118/0218 32005KT 3SM BR OVC005
     FM012000 01006KT 5SM BR OVC007
     FM020100 36003KT P6SM OVC012
     FM021500 09007KT P6SM SCT010 BKN018=



000
FTUS44 KTSA 011100
TAFFYV
TAF
KFYV 011131Z 0112/0212 32005KT 2SM BR OVC009
      TEMPO 0112/0116 2SM -FZDZ BR OVC005
     FM011800 32005KT 5SM BR OVC008
     FM020000 36003KT P6SM OVC012=



000
FTUS44 KTSA 011100
TAFRVS
TAF
KRVS 011131Z 0112/0212 00000KT P6SM FEW007 OVC024
      TEMPO 0112/0116 2SM -FZDZ BR OVC007
     FM011700 01005KT P6SM OVC012
     FM020000 01005KT P6SM OVC020=



000
FTUS44 KTSA 011100
TAFFSM
TAF
KFSM 011131Z 0112/0212 05004KT 3SM -FZRA BR OVC003
      TEMPO 0112/0116 2SM -FZDZ BR OVC003
     FM011600 33006KT 5SM BR OVC008
     FM020000 33006KT P6SM OVC012=



000
FTUS44 KTSA 011100
TAFXNA
TAF
KXNA 011131Z 0112/0212 00000KT 3SM BR OVC005
      TEMPO 0112/0116 2SM -FZDZ BR
     FM011800 33006KT 5SM BR OVC008
     FM020000 36005KT P6SM OVC012=



000
FTUS44 KTSA 011100
TAFMLC
TAF
KMLC 011131Z 0112/0212 36005KT 2SM BR OVC004
      TEMPO 0112/0116 2SM -FZDZ BR OVC004
     FM011800 36006KT 5SM BR OVC008
     FM020000 01007KT P6SM OVC012=



000
FTUS44 KTSA 011100
TAFTUL
TAF
KTUL 011131Z 0112/0212 35005KT 4SM BR BKN003 OVC008
      TEMPO 0112/0116 2SM -FZDZ BR OVC003
     FM011700 36006KT P6SM OVC012
     FM020000 36006KT P6SM OVC020=



000
FTUS44 KTSA 010500
TAFMLC
TAF
KMLC 010536Z 0106/0206 03003KT 3SM -FZDZ BR OVC005
      TEMPO 0106/0110 1SM -FZDZ BR
     FM011800 36006KT 5SM BR OVC008
     FM020000 01007KT P6SM OVC012=



000
FTUS44 KTSA 010500
TAFXNA
TAF
KXNA 010536Z 0106/0206 00000KT 3SM -FZDZ BR OVC005
      TEMPO 0106/0110 1SM -FZDZ BR
     FM011800 33006KT 5SM BR OVC008
     FM020000 36005KT P6SM OVC012=



000
FTUS44 KTSA 010500
TAFTUL
TAF
KTUL 010536Z 0106/0206 00000KT P6SM OVC006
      TEMPO 0106/0110 4SM -FZDZ BR
     FM011000 00000KT 4SM BR OVC006
     FM011700 36006KT P6SM OVC012
     FM020000 36006KT P6SM OVC020=



000
FTUS44 KTSA 010500
TAFFSM
TAF
KFSM 010536Z 0106/0206 08004KT 3SM -FZDZ BR OVC005
      TEMPO 0106/0110 1SM -FZDZ BR
     FM011800 33006KT 5SM BR OVC008
     FM020000 33006KT P6SM OVC012=



000
FTUS44 KTSA 010500
TAFRVS
TAF
KRVS 010536Z 0106/0206 00000KT P6SM OVC006
      TEMPO 0106/0110 4SM -FZDZ BR
     FM011000 00000KT 4SM BR OVC006
     FM011700 01005KT P6SM OVC012
     FM020000 01005KT P6SM OVC020=



000
FTUS44 KTSA 010500
TAFFYV
TAF
KFYV 010536Z 0106/0206 00000KT 3SM -FZDZ BR OVC005
      TEMPO 0106/0110 1SM -FZDZ BR
     FM011800 32005KT 5SM BR OVC008
     FM020000 36003KT P6SM OVC012=



000
FTUS44 KTSA 010500
TAFRVS
TAF
KRVS 010536Z 0106/0206 00000KT P6SM OVC006
      TEMPO 0106/0110 4SM -FZDZ BR
     FM011000 00000KT 4SM BR OVC006
     FM011700 01005KT P6SM OVC012
     FM020000 01005KT P6SM OVC020=



000
FTUS44 KTSA 010500
TAFTUL
TAF
KTUL 010536Z 0106/0206 00000KT P6SM OVC006
      TEMPO 0106/0110 4SM -FZDZ BR
     FM011000 00000KT 4SM BR OVC006
     FM011700 36006KT P6SM OVC012
     FM020000 36006KT P6SM OVC020=



000
FTUS44 KTSA 010500
TAFXNA
TAF
KXNA 010536Z 0106/0206 00000KT 3SM -FZDZ BR OVC005
      TEMPO 0106/0110 1SM -FZDZ BR
     FM011800 33006KT 5SM BR OVC008
     FM020000 36005KT P6SM OVC012=



000
FTUS44 KTSA 010500
TAFFYV
TAF
KFYV 010536Z 0106/0206 00000KT 3SM -FZDZ BR OVC005
      TEMPO 0106/0110 1SM -FZDZ BR
     FM011800 32005KT 5SM BR OVC008
     FM020000 36003KT P6SM OVC012=



000
FTUS44 KTSA 010500
TAFFSM
TAF
KFSM 010536Z 0106/0206 08004KT 3SM -FZDZ BR OVC005
      TEMPO 0106/0110 1SM -FZDZ BR
     FM011800 33006KT 5SM BR OVC008
     FM020000 33006KT P6SM OVC012=



000
FTUS44 KTSA 010500
TAFMLC
TAF
KMLC 010536Z 0106/0206 03003KT 3SM -FZDZ BR OVC005
      TEMPO 0106/0110 1SM -FZDZ BR
     FM011800 36006KT 5SM BR OVC008
     FM020000 01007KT P6SM OVC012=



    US Dept of Commerce
    National Oceanic and Atmospheric Administration
    National Weather Service
    1325 East West Highway
    Silver Spring, MD 20910
    Page Author: NWS Internet Services Team
Disclaimer
Information Quality
Credits
Glossary
Privacy Policy
Freedom of Information Act (FOIA)
About Us
Career Opportunities